createdAt,value
2022-08-14T00:02:22.987Z,53.38
2022-08-14T00:07:27.361Z,53.04
2022-08-14T00:12:48.065Z,53.43
2022-08-14T00:17:55.992Z,54.10
2022-08-14T00:23:08.312Z,55.14
2022-08-14T00:28:19.092Z,55.16
2022-08-14T00:33:21.931Z,55.12
2022-08-14T00:38:44.769Z,54.46
2022-08-14T00:43:50.561Z,55.17
2022-08-14T00:48:53.448Z,56.83
2022-08-14T00:53:57.066Z,58.13
2022-08-14T00:59:01.248Z,57.98
2022-08-14T01:04:05.734Z,57.21
2022-08-14T01:09:08.996Z,57.01
2022-08-14T01:14:25.576Z,56.66
2022-08-14T01:19:49.351Z,56.83
2022-08-14T01:24:57.340Z,57.04
2022-08-14T01:30:03.955Z,57.31
2022-08-14T01:35:17.904Z,57.40
2022-08-14T01:40:40.922Z,57.45
2022-08-14T01:45:48.733Z,57.56
2022-08-14T01:50:52.341Z,57.73
2022-08-14T01:56:00.021Z,57.66
2022-08-14T02:01:05.154Z,57.51
2022-08-14T02:06:32.985Z,57.66
2022-08-14T02:11:37.261Z,57.62
2022-08-14T02:16:42.142Z,58.02
2022-08-14T02:21:50.299Z,58.20
2022-08-14T02:28:19.282Z,57.91
2022-08-14T02:32:19.906Z,57.83
2022-08-14T02:37:45.686Z,58.10
2022-08-14T02:42:55.257Z,58.55
2022-08-14T02:48:00.839Z,58.23
2022-08-14T02:53:06.128Z,58.31
2022-08-14T02:58:13.000Z,58.56
2022-08-14T03:03:32.055Z,58.69
2022-08-14T03:08:46.126Z,58.74
2022-08-14T03:13:52.538Z,59.23
2022-08-14T03:19:00.712Z,59.72
2022-08-14T03:24:21.489Z,60.05
2022-08-14T03:29:29.382Z,59.94
2022-08-14T03:34:48.063Z,60.07
2022-08-14T03:39:55.320Z,59.83
2022-08-14T03:45:25.185Z,60.35
2022-08-14T03:50:30.876Z,60.84
2022-08-14T03:55:34.110Z,60.72
2022-08-14T04:00:44.692Z,60.85
2022-08-14T04:05:48.923Z,61.20
2022-08-14T04:10:52.152Z,61.42
2022-08-14T04:16:02.433Z,61.32
2022-08-14T04:21:08.284Z,61.06
2022-08-14T04:26:27.339Z,60.81
2022-08-14T04:33:10.696Z,60.84
2022-08-14T04:37:24.979Z,60.76
2022-08-14T04:42:51.247Z,60.65
2022-08-14T04:48:13.947Z,60.31
2022-08-14T04:53:42.929Z,60.25
2022-08-14T04:58:48.048Z,60.38
2022-08-14T05:03:52.909Z,60.17
2022-08-14T05:09:00.357Z,60.01
2022-08-14T05:14:43.114Z,59.99
2022-08-14T05:19:29.315Z,60.25
2022-08-14T05:24:32.529Z,59.83
2022-08-14T05:29:36.032Z,64.07
2022-08-14T05:34:40.333Z,62.53
2022-08-14T05:39:48.638Z,62.01
2022-08-14T05:44:54.219Z,61.41
2022-08-14T05:50:00.028Z,60.47
2022-08-14T05:55:03.791Z,60.12
2022-08-14T06:00:07.615Z,60.14
2022-08-14T06:05:15.505Z,59.48
2022-08-14T06:10:19.069Z,59.11
2022-08-14T06:15:25.171Z,58.90
2022-08-14T06:20:34.339Z,58.80
2022-08-14T06:25:37.673Z,57.87
2022-08-14T06:30:45.939Z,57.64
2022-08-14T06:35:51.297Z,56.69
2022-08-14T06:40:54.962Z,56.42
2022-08-14T06:45:57.972Z,56.12
2022-08-14T06:51:04.879Z,55.58
2022-08-14T06:56:08.736Z,55.12
2022-08-14T07:01:29.310Z,54.17
2022-08-14T07:06:46.367Z,53.63
2022-08-14T07:11:50.985Z,53.07
2022-08-14T07:16:53.875Z,53.27
2022-08-14T07:21:58.106Z,52.08
2022-08-14T07:27:04.724Z,52.26
2022-08-14T07:32:11.190Z,52.38
2022-08-14T07:37:15.528Z,51.83
2022-08-14T07:42:20.076Z,51.35
2022-08-14T07:47:26.009Z,51.13
2022-08-14T07:52:32.076Z,50.53
2022-08-14T07:57:35.817Z,50.06
2022-08-14T08:02:41.907Z,48.91
2022-08-14T08:07:48.069Z,48.51
2022-08-14T08:12:53.336Z,48.38
2022-08-14T08:18:01.584Z,47.42
2022-08-14T08:23:10.116Z,47.61
2022-08-14T08:28:26.569Z,47.50
2022-08-14T08:33:37.023Z,45.51
2022-08-14T08:39:16.411Z,45.48
2022-08-14T08:44:16.963Z,45.24
2022-08-14T08:49:20.385Z,43.58
2022-08-14T08:54:26.559Z,43.17
2022-08-14T08:59:34.402Z,42.45
2022-08-14T09:04:45.593Z,42.64
2022-08-14T09:09:59.954Z,42.11
2022-08-14T09:15:09.043Z,41.34
2022-08-14T09:20:25.881Z,41.44
2022-08-14T09:26:00.721Z,40.99
2022-08-14T09:30:58.391Z,40.59
2022-08-14T09:36:21.626Z,38.25
2022-08-14T09:42:21.853Z,39.22
2022-08-14T09:47:14.590Z,39.13
2022-08-14T09:52:32.969Z,39.32
2022-08-14T09:57:38.612Z,39.53
2022-08-14T10:02:53.562Z,38.21
2022-08-14T10:07:59.046Z,37.25
2022-08-14T10:13:07.675Z,37.28
2022-08-14T10:18:17.203Z,36.84
2022-08-14T10:23:24.597Z,36.14
2022-08-14T10:29:18.424Z,35.08
2022-08-14T10:34:13.158Z,35.20
2022-08-14T10:39:20.437Z,34.95
2022-08-14T10:44:29.749Z,34.59
2022-08-14T10:49:35.560Z,35.64
2022-08-14T10:54:40.446Z,36.92
2022-08-14T10:59:49.902Z,36.13
2022-08-14T11:05:11.352Z,33.93
2022-08-14T11:10:16.592Z,32.05
2022-08-14T11:15:23.760Z,31.66
2022-08-14T11:20:29.745Z,31.20
2022-08-14T11:25:43.578Z,32.11
2022-08-14T11:30:53.768Z,32.93
2022-08-14T11:36:00.395Z,31.36
2022-08-14T11:41:07.379Z,32.73
2022-08-14T11:46:17.744Z,34.14
2022-08-14T11:51:36.198Z,33.94
2022-08-14T11:56:56.937Z,32.63
2022-08-14T12:03:03.444Z,30.77
2022-08-14T12:07:49.915Z,32.36
2022-08-14T12:12:59.135Z,31.89
2022-08-14T12:18:11.339Z,30.07
2022-08-14T12:23:24.872Z,29.87
2022-08-14T12:28:33.773Z,30.38
2022-08-14T12:34:10.326Z,29.74
2022-08-14T12:39:19.500Z,29.43
2022-08-14T12:44:32.266Z,28.51
2022-08-14T12:49:36.879Z,27.71
2022-08-14T12:54:50.509Z,27.81
2022-08-14T13:00:22.616Z,27.33
2022-08-14T13:05:36.108Z,28.11
2022-08-14T13:10:47.854Z,28.69
2022-08-14T13:15:57.737Z,26.70
2022-08-14T13:21:05.548Z,26.19
2022-08-14T13:26:09.014Z,29.06
2022-08-14T13:31:16.847Z,29.30
2022-08-14T13:36:24.002Z,28.89
2022-08-14T13:41:47.691Z,27.72
2022-08-14T13:47:00.154Z,29.95
2022-08-14T13:52:48.125Z,29.97
2022-08-14T13:57:49.451Z,29.98
2022-08-14T14:03:01.227Z,28.96
2022-08-14T14:08:18.479Z,27.97
2022-08-14T14:13:26.517Z,29.19
2022-08-14T14:18:34.744Z,28.64
2022-08-14T14:23:39.927Z,28.55
2022-08-14T14:28:45.294Z,28.54
2022-08-14T14:33:50.753Z,27.65
2022-08-14T14:38:57.185Z,28.14
2022-08-14T14:44:01.274Z,27.29
2022-08-14T14:49:14.383Z,27.47
2022-08-14T14:54:31.592Z,27.62
2022-08-14T14:59:37.286Z,27.43
2022-08-14T15:04:43.459Z,26.85
2022-08-14T15:09:49.387Z,26.94
2022-08-14T15:14:58.136Z,27.56
2022-08-14T15:20:17.263Z,27.53
2022-08-14T15:25:39.336Z,27.62
2022-08-14T15:30:45.794Z,28.00
2022-08-14T15:35:54.300Z,27.48
2022-08-14T15:41:08.547Z,28.49
2022-08-14T15:46:25.298Z,28.48
2022-08-14T15:51:35.514Z,29.51
2022-08-14T15:56:46.725Z,30.20
2022-08-14T16:01:54.721Z,31.73
2022-08-14T16:06:58.129Z,32.40
2022-08-14T16:12:02.433Z,32.86
2022-08-14T16:17:07.407Z,33.72
2022-08-14T16:22:57.526Z,34.43
2022-08-14T16:27:39.147Z,34.58
2022-08-14T16:32:55.340Z,34.40
2022-08-14T16:37:59.865Z,34.24
2022-08-14T16:43:26.012Z,34.06
2022-08-14T16:48:55.192Z,33.52
2022-08-14T16:53:54.594Z,32.08
2022-08-14T16:59:12.257Z,31.68
2022-08-14T17:04:24.677Z,32.73
2022-08-14T17:09:31.965Z,32.30
2022-08-14T17:14:56.254Z,32.61
2022-08-14T17:20:08.856Z,32.72
2022-08-14T17:25:30.011Z,31.89
2022-08-14T17:30:49.971Z,30.79
2022-08-14T17:36:10.430Z,29.75
2022-08-14T17:41:27.323Z,29.47
2022-08-14T17:46:43.854Z,30.84
2022-08-14T17:52:03.784Z,32.29
2022-08-14T17:57:14.016Z,33.36
2022-08-14T18:02:31.277Z,33.87
2022-08-14T18:07:59.395Z,34.33
2022-08-14T18:13:10.815Z,34.84
2022-08-14T18:18:16.140Z,35.80
2022-08-14T18:23:21.495Z,35.89
2022-08-14T18:28:51.700Z,36.90
2022-08-14T18:33:57.137Z,37.13
2022-08-14T18:39:29.541Z,37.47
2022-08-14T18:45:12.995Z,37.94
2022-08-14T18:50:27.935Z,37.75
2022-08-14T18:55:52.864Z,38.09
2022-08-14T19:00:59.309Z,38.10
2022-08-14T19:06:05.530Z,38.77
2022-08-14T19:11:51.626Z,38.52
2022-08-14T19:16:54.528Z,39.06
2022-08-14T19:21:58.862Z,38.99
2022-08-14T19:27:23.745Z,39.74
2022-08-14T19:32:41.003Z,39.83
2022-08-14T19:37:48.467Z,40.10
2022-08-14T19:42:58.435Z,40.00
2022-08-14T19:48:02.981Z,40.26
2022-08-14T19:53:11.115Z,40.40
2022-08-14T19:58:14.798Z,40.75
2022-08-14T20:03:19.018Z,40.77
2022-08-14T20:09:06.435Z,41.09
2022-08-14T20:13:57.928Z,41.29
2022-08-14T20:19:13.914Z,41.44
2022-08-14T20:24:30.743Z,41.80
2022-08-14T20:29:37.975Z,41.93
2022-08-14T20:34:51.063Z,42.25
2022-08-14T20:39:56.005Z,42.42
2022-08-14T20:45:21.374Z,42.44
2022-08-14T20:50:29.577Z,42.51
2022-08-14T20:55:41.791Z,42.20
2022-08-14T21:00:51.687Z,42.56
2022-08-14T21:05:58.876Z,42.61
2022-08-14T21:11:02.700Z,42.53
2022-08-14T21:16:34.256Z,42.66
2022-08-14T21:21:41.299Z,42.97
2022-08-14T21:26:52.567Z,43.51
2022-08-14T21:32:20.511Z,43.38
2022-08-14T21:37:25.280Z,43.61
2022-08-14T21:42:32.745Z,43.72
2022-08-14T21:47:38.866Z,44.23
2022-08-14T21:52:50.715Z,44.25
2022-08-14T21:58:52.203Z,44.37
2022-08-14T22:03:26.329Z,44.50
2022-08-14T22:08:39.822Z,44.36
2022-08-14T22:13:49.131Z,43.87
2022-08-14T22:18:52.546Z,43.78
2022-08-14T22:24:01.544Z,43.74
2022-08-14T22:29:15.485Z,44.06
2022-08-14T22:34:20.316Z,44.27
2022-08-14T22:40:54.604Z,44.06
2022-08-14T22:44:50.482Z,44.25
2022-08-14T22:50:29.411Z,44.01
2022-08-14T22:55:18.257Z,43.90
2022-08-14T23:00:25.172Z,44.23
2022-08-14T23:05:40.169Z,44.42
2022-08-14T23:10:57.174Z,44.23
2022-08-14T23:16:00.053Z,44.57
2022-08-14T23:21:02.853Z,44.26
2022-08-14T23:26:48.326Z,44.43
2022-08-14T23:31:35.572Z,44.71
2022-08-14T23:36:54.845Z,44.74
2022-08-14T23:42:02.322Z,45.30
2022-08-14T23:47:25.420Z,45.71
2022-08-14T23:52:50.427Z,45.59
2022-08-14T23:57:57.990Z,46.33
